createdAt,value
2023-04-03T00:01:25.414Z,93930.78
2023-04-03T00:03:53.570Z,93934.34
2023-04-03T00:06:22.888Z,93930.59
2023-04-03T00:08:50.918Z,93930.59
2023-04-03T00:11:19.690Z,93909.94
2023-04-03T00:13:47.693Z,93923.34
2023-04-03T00:16:16.222Z,93927.25
2023-04-03T00:18:44.813Z,93921.56
2023-04-03T00:21:15.515Z,93914.19
2023-04-03T00:23:44.851Z,93917.09
2023-04-03T00:26:12.973Z,93911.00
2023-04-03T00:28:40.991Z,93906.88
2023-04-03T00:31:08.912Z,93924.47
2023-04-03T00:33:36.864Z,93912.34
2023-04-03T00:36:09.098Z,93892.03
2023-04-03T00:38:37.095Z,93917.19
2023-04-03T00:41:06.696Z,93917.78
2023-04-03T00:43:34.806Z,93902.63
2023-04-03T00:46:02.952Z,93926.88
2023-04-03T00:48:34.573Z,93926.88
2023-04-03T00:51:04.600Z,93928.91
2023-04-03T00:53:35.760Z,93923.91
2023-04-03T00:56:07.609Z,93918.47
2023-04-03T00:58:41.868Z,93901.13
2023-04-03T01:01:17.047Z,93926.78
2023-04-03T01:03:45.132Z,93940.81
2023-04-03T01:06:13.474Z,93917.78
2023-04-03T01:08:41.386Z,93932.63
2023-04-03T01:11:09.249Z,93933.13
2023-04-03T01:13:38.545Z,93935.63
2023-04-03T01:16:07.870Z,93929.28
2023-04-03T01:18:39.458Z,93929.59
2023-04-03T01:21:42.271Z,93929.28
2023-04-03T01:24:29.786Z,93926.91
2023-04-03T01:26:57.993Z,93922.59
2023-04-03T01:29:27.822Z,93931.69
2023-04-03T01:31:59.212Z,93930.25
2023-04-03T01:34:28.038Z,93932.84
2023-04-03T01:36:56.283Z,93931.28
2023-04-03T01:39:24.624Z,93928.75
2023-04-03T01:41:53.079Z,93920.41
2023-04-03T01:44:21.066Z,93933.78
2023-04-03T01:46:49.052Z,93929.63
2023-04-03T01:49:18.316Z,93928.66
2023-04-03T01:51:46.242Z,93933.81
2023-04-03T01:54:14.359Z,93933.81
2023-04-03T01:56:42.440Z,93936.63
2023-04-03T01:59:10.516Z,93931.63
2023-04-03T02:01:38.573Z,93934.53
2023-04-03T02:04:06.577Z,93935.97
2023-04-03T02:06:35.968Z,93935.00
2023-04-03T02:09:03.967Z,93930.94
2023-04-03T02:11:32.072Z,93929.19
2023-04-03T02:13:59.960Z,93941.31
2023-04-03T02:16:27.945Z,93936.31
2023-04-03T02:18:55.840Z,93953.00
2023-04-03T02:21:23.939Z,93943.78
2023-04-03T02:23:53.255Z,93948.63
2023-04-03T02:26:21.154Z,93939.28
2023-04-03T02:28:49.122Z,93924.31
2023-04-03T02:31:17.079Z,93924.94
2023-04-03T02:33:45.014Z,93921.91
2023-04-03T02:36:12.883Z,93920.09
2023-04-03T02:38:40.916Z,93922.38
2023-04-03T02:41:12.432Z,93920.28
2023-04-03T02:43:41.020Z,93920.09
2023-04-03T02:46:09.056Z,93923.84
2023-04-03T02:48:37.388Z,93898.16
2023-04-03T02:51:05.659Z,93890.59
2023-04-03T02:53:33.635Z,93888.34
2023-04-03T02:56:01.524Z,93909.94
2023-04-03T02:58:31.171Z,93907.53
2023-04-03T03:00:59.116Z,93902.84
2023-04-03T03:03:27.089Z,93904.28
2023-04-03T03:06:03.633Z,93883.31
2023-04-03T03:08:31.505Z,93907.19
2023-04-03T03:10:59.443Z,93881.88
2023-04-03T03:13:28.160Z,93899.13
2023-04-03T03:15:57.941Z,93865.25
2023-04-03T03:18:26.354Z,93892.03
2023-04-03T03:20:55.102Z,93901.69
2023-04-03T03:23:23.918Z,93894.16
2023-04-03T03:25:56.449Z,93871.88
2023-04-03T03:28:24.511Z,93895.75
2023-04-03T03:30:52.527Z,93889.59
2023-04-03T03:33:21.819Z,93861.09
2023-04-03T03:35:49.794Z,93888.97
2023-04-03T03:38:17.769Z,93899.94
2023-04-03T03:40:45.644Z,93903.66
2023-04-03T03:43:13.585Z,93907.66
2023-04-03T03:45:41.672Z,93900.41
2023-04-03T03:48:10.510Z,93895.56
2023-04-03T03:50:39.901Z,93898.13
2023-04-03T03:53:07.760Z,93903.63
2023-04-03T03:55:36.167Z,93903.13
2023-04-03T03:58:04.552Z,93857.81
2023-04-03T04:00:33.124Z,93875.22
2023-04-03T04:03:01.957Z,93902.34
2023-04-03T04:05:30.164Z,93908.63
2023-04-03T04:07:59.465Z,93896.38
2023-04-03T04:10:27.386Z,93902.16
2023-04-03T04:12:56.837Z,93901.50
2023-04-03T04:15:26.828Z,93899.56
2023-04-03T04:17:55.391Z,93900.84
2023-04-03T04:20:23.710Z,93893.13
2023-04-03T04:22:51.662Z,93916.81
2023-04-03T04:25:21.159Z,93924.25
2023-04-03T04:27:49.027Z,93910.22
2023-04-03T04:30:17.223Z,93918.47
2023-04-03T04:32:45.229Z,93919.59
2023-04-03T04:35:16.165Z,93917.19
2023-04-03T04:37:44.786Z,93927.97
2023-04-03T04:40:13.364Z,93933.78
2023-04-03T04:42:42.623Z,93934.91
2023-04-03T04:45:11.470Z,93927.47
2023-04-03T04:47:39.441Z,93940.88
2023-04-03T04:50:08.386Z,93917.97
2023-04-03T04:52:36.289Z,93936.88
2023-04-03T04:55:04.505Z,93941.38
2023-04-03T04:57:32.643Z,93939.63
2023-04-03T05:00:02.090Z,93935.28
2023-04-03T05:02:30.176Z,93939.78
2023-04-03T05:04:58.085Z,93951.41
2023-04-03T05:07:26.819Z,93936.09
2023-04-03T05:09:54.727Z,93952.88
2023-04-03T05:12:23.049Z,93964.00
2023-04-03T05:14:50.997Z,93961.72
2023-04-03T05:17:20.423Z,93968.50
2023-04-03T05:19:48.565Z,93973.19
2023-04-03T05:22:16.555Z,93975.59
2023-04-03T05:24:44.484Z,93975.44
2023-04-03T05:27:12.389Z,93970.41
2023-04-03T05:29:40.756Z,93965.88
2023-04-03T05:32:08.686Z,93961.03
2023-04-03T05:34:38.399Z,93967.63
2023-04-03T05:37:06.417Z,93967.63
2023-04-03T05:39:35.274Z,93955.84
2023-04-03T05:42:03.196Z,93958.88
2023-04-03T05:44:31.158Z,93963.38
2023-04-03T05:46:59.149Z,93951.78
2023-04-03T05:49:27.383Z,93966.22
2023-04-03T05:51:56.663Z,93956.38
2023-04-03T05:54:26.895Z,93948.78
2023-04-03T05:56:55.078Z,93950.03
2023-04-03T05:59:23.277Z,93953.41
2023-04-03T06:01:51.898Z,93955.63
2023-04-03T06:04:20.287Z,93954.00
2023-04-03T06:06:50.526Z,93949.81
2023-04-03T06:09:21.385Z,93940.09
2023-04-03T06:11:49.713Z,93930.41
2023-04-03T06:14:17.654Z,93933.59
2023-04-03T06:16:47.070Z,93917.44
2023-04-03T06:19:15.100Z,93912.91
2023-04-03T06:21:43.592Z,93918.59
2023-04-03T06:24:14.571Z,93924.38
2023-04-03T06:26:44.072Z,93934.75
2023-04-03T06:29:12.245Z,93945.06
2023-04-03T06:31:40.790Z,93938.50
2023-04-03T06:34:09.874Z,93939.63
2023-04-03T06:36:39.715Z,93940.28
2023-04-03T06:39:08.071Z,93930.88
2023-04-03T06:41:37.211Z,93945.97
2023-04-03T06:44:07.367Z,93948.84
2023-04-03T06:46:35.324Z,93957.19
2023-04-03T06:49:08.357Z,93953.44
2023-04-03T06:51:37.888Z,93941.81
2023-04-03T06:54:09.226Z,93951.56
2023-04-03T06:56:37.335Z,93954.06
2023-04-03T06:59:06.652Z,93955.78
2023-04-03T07:01:35.114Z,93948.34
2023-04-03T07:04:03.287Z,93948.34
2023-04-03T07:06:32.085Z,93949.63
2023-04-03T07:09:00.110Z,93951.31
2023-04-03T07:11:29.300Z,93949.44
2023-04-03T07:13:57.666Z,93942.19
2023-04-03T07:16:27.199Z,93926.38
2023-04-03T07:18:55.164Z,93929.69
2023-04-03T07:21:23.468Z,93927.72
2023-04-03T07:23:51.878Z,93938.53
2023-04-03T07:26:21.810Z,93925.50
2023-04-03T07:28:51.018Z,93930.50
2023-04-03T07:31:19.857Z,93938.09
2023-04-03T07:33:49.432Z,93931.84
2023-04-03T07:36:20.982Z,93928.63
2023-04-03T07:38:48.895Z,93934.44
2023-04-03T07:41:18.864Z,93923.47
2023-04-03T07:43:47.598Z,93917.13
2023-04-03T07:46:15.938Z,93901.31
2023-04-03T07:48:43.871Z,93918.03
2023-04-03T07:51:14.072Z,93902.91
2023-04-03T07:53:42.000Z,93910.63
2023-04-03T07:56:10.827Z,93886.06
2023-04-03T07:58:39.312Z,93904.81
2023-04-03T08:01:07.309Z,93904.69
2023-04-03T08:03:35.573Z,93892.72
2023-04-03T08:06:06.172Z,93891.63
2023-04-03T08:08:36.791Z,93905.94
2023-04-03T08:11:06.693Z,93907.03
2023-04-03T08:13:35.884Z,93899.25
2023-04-03T08:16:10.424Z,93879.53
2023-04-03T08:18:38.416Z,93890.22
2023-04-03T08:21:09.320Z,93874.56
2023-04-03T08:23:39.532Z,93896.38
2023-04-03T08:26:09.232Z,93897.88
2023-04-03T08:28:37.284Z,93885.56
2023-04-03T08:31:08.166Z,93897.50
2023-04-03T08:33:37.468Z,93889.53
2023-04-03T08:36:06.599Z,93864.28
2023-04-03T08:38:35.040Z,93867.69
2023-04-03T08:41:09.643Z,93874.16
2023-04-03T08:43:45.222Z,93856.34
2023-04-03T08:46:19.134Z,93867.41
2023-04-03T08:48:48.454Z,93842.09
2023-04-03T08:51:19.638Z,93866.81
2023-04-03T08:53:57.846Z,93866.63
2023-04-03T08:56:28.497Z,93863.25
2023-04-03T08:59:00.365Z,93834.81
2023-04-03T09:01:36.000Z,93848.28
2023-04-03T09:04:06.476Z,93855.91
2023-04-03T09:06:35.135Z,93853.88
2023-04-03T09:09:14.425Z,93849.69
2023-04-03T09:11:54.709Z,93835.09
2023-04-03T09:14:33.016Z,93829.63
2023-04-03T09:17:04.316Z,93830.06
2023-04-03T09:19:44.138Z,93829.66
2023-04-03T09:22:18.805Z,93812.59
2023-04-03T09:24:49.246Z,93818.16
2023-04-03T09:29:47.196Z,93780.44
2023-04-03T09:32:24.168Z,93797.22
2023-04-03T09:35:20.683Z,93820.38
2023-04-03T09:37:53.345Z,93793.84
2023-04-03T09:40:52.193Z,93808.59
2023-04-03T09:43:31.554Z,93820.38
2023-04-03T09:46:20.987Z,93800.81
2023-04-03T09:49:07.528Z,93803.06
2023-04-03T09:51:37.844Z,93807.38
2023-04-03T09:54:28.739Z,93800.50
2023-04-03T09:56:58.192Z,93788.13
2023-04-03T09:59:27.543Z,93793.00
2023-04-03T10:02:02.642Z,93793.13
2023-04-03T10:04:40.926Z,93792.75
2023-04-03T10:07:31.533Z,93793.44
2023-04-03T10:10:21.081Z,93794.06
2023-04-03T10:12:52.303Z,93772.56
2023-04-03T10:15:22.622Z,93786.00
2023-04-03T10:18:02.644Z,93798.66
2023-04-03T10:20:39.864Z,93796.47
2023-04-03T10:23:21.103Z,93776.25
2023-04-03T10:26:01.764Z,93783.94
2023-04-03T10:28:38.126Z,93778.28
2023-04-03T10:31:16.590Z,93758.53
2023-04-03T10:33:57.938Z,93768.22
2023-04-03T10:36:36.870Z,93740.00
2023-04-03T10:39:15.131Z,93763.38
2023-04-03T10:42:00.885Z,93771.63
2023-04-03T10:44:53.075Z,93755.97
2023-04-03T10:47:26.346Z,93757.53
2023-04-03T10:50:03.188Z,93757.63
2023-04-03T10:52:40.811Z,93755.28
2023-04-03T10:55:26.649Z,93744.88
2023-04-03T10:57:58.216Z,93741.69
2023-04-03T11:00:38.466Z,93755.00
2023-04-03T11:03:13.819Z,93755.88
2023-04-03T11:05:44.962Z,93760.66
2023-04-03T11:08:23.783Z,93758.50
2023-04-03T11:10:53.584Z,93727.09
2023-04-03T11:13:27.197Z,93756.50
2023-04-03T11:15:56.519Z,93771.59
2023-04-03T11:18:34.771Z,93770.66
2023-04-03T11:21:06.827Z,93771.09
2023-04-03T11:23:48.961Z,93761.53
2023-04-03T11:26:21.930Z,93762.50
2023-04-03T11:28:55.351Z,93771.13
2023-04-03T11:31:35.671Z,93756.50
2023-04-03T11:34:17.358Z,93745.09
2023-04-03T11:36:48.980Z,93762.72
2023-04-03T11:39:25.424Z,93761.72
2023-04-03T11:42:06.899Z,93761.09
2023-04-03T11:44:40.740Z,93760.50
2023-04-03T11:47:10.272Z,93761.09
2023-04-03T11:50:02.185Z,93758.84
2023-04-03T11:53:06.073Z,93764.03
2023-04-03T11:55:56.627Z,93761.22
2023-04-03T11:58:27.377Z,93753.03
2023-04-03T12:01:04.921Z,93772.81
2023-04-03T12:04:08.653Z,93770.81
2023-04-03T12:07:01.186Z,93768.56
2023-04-03T12:09:33.674Z,93777.00
2023-04-03T12:12:04.051Z,93768.31
2023-04-03T12:14:32.027Z,93762.31
2023-04-03T12:17:00.993Z,93767.03
2023-04-03T12:19:44.488Z,93764.00
2023-04-03T12:22:21.731Z,93759.13
2023-04-03T12:24:52.775Z,93757.44
2023-04-03T12:27:40.739Z,93749.31
2023-04-03T12:30:25.048Z,93748.69
2023-04-03T12:33:22.633Z,93744.47
2023-04-03T12:36:06.844Z,93744.47
2023-04-03T12:39:12.311Z,93732.25
2023-04-03T12:41:48.601Z,93728.47
2023-04-03T12:44:44.292Z,93721.50
2023-04-03T12:47:25.794Z,93716.66
2023-04-03T12:49:56.207Z,93683.22
2023-04-03T12:52:37.481Z,93708.09
2023-04-03T12:55:16.324Z,93701.25
2023-04-03T12:57:44.287Z,93685.44
2023-04-03T13:00:36.040Z,93700.81
2023-04-03T13:03:06.057Z,93710.38
2023-04-03T13:05:36.659Z,93714.34
2023-04-03T13:08:08.632Z,93698.31
2023-04-03T13:10:50.060Z,93710.06
2023-04-03T13:13:18.368Z,93685.00
2023-04-03T13:15:49.984Z,93680.59
2023-04-03T13:18:33.243Z,93702.94
2023-04-03T13:21:06.819Z,93693.97
2023-04-03T13:23:37.819Z,93688.94
2023-04-03T13:26:08.918Z,93694.19
2023-04-03T13:28:37.847Z,93686.16
2023-04-03T13:31:11.358Z,93672.88
2023-04-03T13:33:40.154Z,93684.59
2023-04-03T13:36:18.572Z,93682.94
2023-04-03T13:38:47.027Z,93666.34
2023-04-03T13:41:31.206Z,93684.31
2023-04-03T13:44:16.437Z,93678.69
2023-04-03T13:46:44.747Z,93682.94
2023-04-03T13:49:24.343Z,93684.13
2023-04-03T13:52:04.316Z,93682.16
2023-04-03T13:54:37.886Z,93647.16
2023-04-03T13:57:15.139Z,93681.41
2023-04-03T13:59:44.229Z,93640.94
2023-04-03T14:02:19.569Z,93667.59
2023-04-03T14:04:54.232Z,93655.66
2023-04-03T14:07:22.514Z,93668.88
2023-04-03T14:09:51.063Z,93659.44
2023-04-03T14:12:31.408Z,93663.69
2023-04-03T14:15:00.886Z,93659.50
2023-04-03T14:17:29.537Z,93662.94
2023-04-03T14:19:58.865Z,93653.91
2023-04-03T14:22:30.485Z,93651.34
2023-04-03T14:24:58.820Z,93627.34
2023-04-03T14:27:30.331Z,93662.25
2023-04-03T14:30:00.492Z,93652.41
2023-04-03T14:32:28.823Z,93653.41
2023-04-03T14:34:58.109Z,93655.00
2023-04-03T14:37:28.924Z,93648.72
2023-04-03T14:39:59.348Z,93650.72
2023-04-03T14:42:31.948Z,93640.69
2023-04-03T14:45:00.980Z,93645.50
2023-04-03T14:47:32.428Z,93646.66
2023-04-03T14:50:01.911Z,93648.03
2023-04-03T14:52:32.694Z,93638.84
2023-04-03T14:55:02.257Z,93626.63
2023-04-03T14:57:32.310Z,93630.56
2023-04-03T15:00:01.773Z,93621.25
2023-04-03T15:02:32.466Z,93632.91
2023-04-03T15:05:03.963Z,93631.13
2023-04-03T15:07:34.616Z,93629.84
2023-04-03T15:10:12.285Z,93632.34
2023-04-03T15:12:41.670Z,93606.28
2023-04-03T15:15:12.169Z,93600.84
2023-04-03T15:17:41.060Z,93626.22
2023-04-03T15:20:15.670Z,93621.69
2023-04-03T15:22:43.817Z,93616.16
2023-04-03T15:25:12.859Z,93616.25
2023-04-03T15:27:42.524Z,93606.28
2023-04-03T15:30:18.824Z,93605.88
2023-04-03T15:32:47.092Z,93620.44
2023-04-03T15:35:15.243Z,93609.66
2023-04-03T15:37:43.686Z,93601.78
2023-04-03T15:40:12.409Z,93605.84
2023-04-03T15:42:42.500Z,93605.38
2023-04-03T15:45:11.280Z,93588.03
2023-04-03T15:47:39.689Z,93585.97
2023-04-03T15:50:09.345Z,93588.53
2023-04-03T15:52:38.827Z,93579.59
2023-04-03T15:55:08.136Z,93584.78
2023-04-03T16:00:13.497Z,93583.13
2023-04-03T16:02:42.854Z,93583.22
2023-04-03T16:05:12.246Z,93587.50
2023-04-03T16:07:41.052Z,93582.13
2023-04-03T16:10:11.095Z,93578.84
2023-04-03T16:12:39.417Z,93567.44
2023-04-03T16:15:08.636Z,93558.06
2023-04-03T16:17:39.673Z,93566.34
2023-04-03T16:20:10.492Z,93546.47
2023-04-03T16:22:39.433Z,93548.00
2023-04-03T16:25:09.159Z,93551.28
2023-04-03T16:27:39.071Z,93551.63
2023-04-03T16:30:09.001Z,93544.50
2023-04-03T16:32:40.805Z,93555.25
2023-04-03T16:35:11.847Z,93549.28
2023-04-03T16:37:41.715Z,93539.72
2023-04-03T16:40:10.747Z,93531.56
2023-04-03T16:42:38.656Z,93510.84
2023-04-03T16:45:08.467Z,93505.53
2023-04-03T16:47:36.786Z,93494.94
2023-04-03T16:50:07.870Z,93473.41
2023-04-03T16:52:36.033Z,93473.03
2023-04-03T16:55:04.419Z,93469.59
2023-04-03T16:57:32.384Z,93454.44
2023-04-03T17:00:00.481Z,93440.38
2023-04-03T17:02:28.696Z,93464.81
2023-04-03T17:04:56.868Z,93459.34
2023-04-03T17:07:27.228Z,93444.38
2023-04-03T17:09:55.249Z,93449.28
2023-04-03T17:12:23.653Z,93442.06
2023-04-03T17:14:51.619Z,93454.81
2023-04-03T17:17:23.433Z,93447.41
2023-04-03T17:19:51.611Z,93445.75
2023-04-03T17:22:19.535Z,93453.47
2023-04-03T17:24:48.854Z,93454.06
2023-04-03T17:27:16.802Z,93445.94
2023-04-03T17:29:44.807Z,93437.50
2023-04-03T17:32:12.780Z,93444.28
2023-04-03T17:34:40.710Z,93439.69
2023-04-03T17:37:08.812Z,93437.06
2023-04-03T17:39:36.830Z,93421.50
2023-04-03T17:42:06.328Z,93410.69
2023-04-03T17:44:34.642Z,93421.56
2023-04-03T17:47:03.084Z,93423.72
2023-04-03T17:49:31.594Z,93425.97
2023-04-03T17:51:59.496Z,93413.78
2023-04-03T17:54:27.547Z,93420.63
2023-04-03T17:56:55.715Z,93420.16
2023-04-03T17:59:25.161Z,93419.84
2023-04-03T18:01:53.625Z,93410.78
2023-04-03T18:04:21.702Z,93409.81
2023-04-03T18:06:52.874Z,93412.88
2023-04-03T18:09:24.397Z,93418.69
2023-04-03T18:11:54.518Z,93421.28
2023-04-03T18:14:26.884Z,93403.13
2023-04-03T18:16:57.369Z,93408.34
2023-04-03T18:19:27.167Z,93398.59
2023-04-03T18:21:59.376Z,93405.56
2023-04-03T18:24:28.237Z,93403.19
2023-04-03T18:27:00.975Z,93389.25
2023-04-03T18:29:32.034Z,93404.72
2023-04-03T18:32:03.891Z,93377.91
2023-04-03T18:34:32.597Z,93381.63
2023-04-03T18:37:01.008Z,93397.72
2023-04-03T18:39:29.059Z,93395.72
2023-04-03T18:41:59.418Z,93385.94
2023-04-03T18:44:29.270Z,93391.72
2023-04-03T18:46:59.920Z,93368.94
2023-04-03T18:49:30.144Z,93385.31
2023-04-03T18:51:58.157Z,93388.34
2023-04-03T18:54:26.014Z,93379.59
2023-04-03T18:56:54.009Z,93373.75
2023-04-03T18:59:22.107Z,93374.78
2023-04-03T19:01:50.141Z,93359.31
2023-04-03T19:04:19.681Z,93365.91
2023-04-03T19:06:47.738Z,93367.09
2023-04-03T19:09:15.977Z,93355.41
2023-04-03T19:11:43.927Z,93346.00
2023-04-03T19:14:16.562Z,93330.28
2023-04-03T19:16:45.322Z,93330.13
2023-04-03T19:19:13.433Z,93333.69
2023-04-03T19:21:43.116Z,93332.94
2023-04-03T19:24:11.994Z,93319.72
2023-04-03T19:26:40.956Z,93323.41
2023-04-03T19:29:09.004Z,93328.59
2023-04-03T19:31:38.166Z,93334.94
2023-04-03T19:34:07.231Z,93328.16
2023-04-03T19:36:36.049Z,93338.13
2023-04-03T19:39:06.323Z,93335.28
2023-04-03T19:41:37.853Z,93309.56
2023-04-03T19:44:07.797Z,93308.84
2023-04-03T19:46:36.609Z,93311.22
2023-04-03T19:49:04.707Z,93302.25
2023-04-03T19:51:33.115Z,93314.25
2023-04-03T19:54:01.221Z,93303.41
2023-04-03T19:56:30.886Z,93310.75
2023-04-03T19:58:58.857Z,93313.38
2023-04-03T20:01:27.932Z,93312.53
2023-04-03T20:03:55.908Z,93297.28
2023-04-03T20:06:23.999Z,93309.09
2023-04-03T20:08:51.969Z,93304.31
2023-04-03T20:11:20.204Z,93302.44
2023-04-03T20:13:51.603Z,93299.50
2023-04-03T20:16:22.378Z,93314.38
2023-04-03T20:18:52.444Z,93310.19
2023-04-03T20:21:20.516Z,93306.63
2023-04-03T20:23:48.388Z,93298.88
2023-04-03T20:26:23.300Z,93278.88
2023-04-03T20:28:52.789Z,93294.38
2023-04-03T20:31:21.527Z,93298.56
2023-04-03T20:33:50.516Z,93293.44
2023-04-03T20:36:19.958Z,93290.47
2023-04-03T20:38:48.972Z,93278.09
2023-04-03T20:41:17.643Z,93282.34
2023-04-03T20:43:46.367Z,93291.06
2023-04-03T20:46:20.124Z,93287.28
2023-04-03T20:48:49.229Z,93291.66
2023-04-03T20:51:19.441Z,93285.31
2023-04-03T20:53:48.173Z,93280.13
2023-04-03T20:56:16.485Z,93264.31
2023-04-03T20:58:46.795Z,93293.66
2023-04-03T21:01:19.105Z,93299.88
2023-04-03T21:03:48.763Z,93310.75
2023-04-03T21:06:55.597Z,93302.25
2023-04-03T21:10:01.395Z,93303.72
2023-04-03T21:13:06.553Z,93296.25
2023-04-03T21:15:51.945Z,93293.31
2023-04-03T21:18:51.788Z,93271.97
2023-04-03T21:21:22.712Z,93271.97
2023-04-03T21:23:51.890Z,93265.88
2023-04-03T21:26:22.011Z,93251.97
2023-04-03T21:28:52.086Z,93252.78
2023-04-03T21:31:21.463Z,93237.78
2023-04-03T21:33:50.805Z,93241.78
2023-04-03T21:36:18.664Z,93235.03
2023-04-03T21:38:47.799Z,93229.03
2023-04-03T21:41:17.569Z,93218.91
2023-04-03T21:43:47.436Z,93215.53
2023-04-03T21:46:15.954Z,93205.59
2023-04-03T21:48:45.664Z,93215.53
2023-04-03T21:51:15.526Z,93202.38
2023-04-03T21:53:44.069Z,93208.28
2023-04-03T21:56:12.857Z,93204.56
2023-04-03T21:58:41.053Z,93214.34
2023-04-03T22:01:13.325Z,93204.81
2023-04-03T22:03:42.634Z,93192.47
2023-04-03T22:06:11.174Z,93187.69
2023-04-03T22:08:41.274Z,93191.25
2023-04-03T22:11:11.085Z,93184.63
2023-04-03T22:13:39.001Z,93194.25
2023-04-03T22:16:07.522Z,93169.25
2023-04-03T22:18:36.166Z,93189.03
2023-04-03T22:21:04.268Z,93191.66
2023-04-03T22:23:32.123Z,93190.84
2023-04-03T22:26:03.283Z,93188.44
2023-04-03T22:28:32.652Z,93182.06
2023-04-03T22:31:02.570Z,93191.25
2023-04-03T22:33:30.900Z,93184.28
2023-04-03T22:35:58.853Z,93170.53
2023-04-03T22:38:26.739Z,93140.81
2023-04-03T22:40:59.583Z,93157.97
2023-04-03T22:43:30.411Z,93147.47
2023-04-03T22:45:58.721Z,93118.78
2023-04-03T22:48:27.216Z,93137.06
2023-04-03T22:50:56.076Z,93161.72
2023-04-03T22:53:24.328Z,93157.53
2023-04-03T22:55:56.492Z,93144.56
2023-04-03T22:58:26.500Z,93162.34
2023-04-03T23:00:57.524Z,93160.50
2023-04-03T23:03:25.997Z,93146.59
2023-04-03T23:05:56.260Z,93148.00
2023-04-03T23:08:24.216Z,93149.41
2023-04-03T23:10:56.078Z,93152.34
2023-04-03T23:13:24.116Z,93148.56
2023-04-03T23:15:57.352Z,93150.53
2023-04-03T23:18:25.813Z,93146.38
2023-04-03T23:20:55.331Z,93142.19
2023-04-03T23:23:23.992Z,93140.38
2023-04-03T23:25:54.882Z,93141.00
2023-04-03T23:28:22.866Z,93132.59
2023-04-03T23:30:51.821Z,93131.44
2023-04-03T23:33:21.489Z,93134.22
2023-04-03T23:35:49.478Z,93121.63
2023-04-03T23:38:17.678Z,93121.06
2023-04-03T23:40:47.185Z,93140.00
2023-04-03T23:43:15.632Z,93123.91
2023-04-03T23:45:45.858Z,93111.59
2023-04-03T23:48:14.301Z,93095.63
2023-04-03T23:50:44.860Z,93110.75
2023-04-03T23:53:13.673Z,93109.97
2023-04-03T23:55:41.867Z,93099.84
2023-04-03T23:58:10.713Z,93101.63
